sensor_id;sensor_type;location;lat;lon;timestamp;temperature;humidity
25280;DHT22;13225;47.804;12.116;2023-10-08T00:00:48;16.50;99.90
25280;DHT22;13225;47.804;12.116;2023-10-08T00:03:19;16.40;99.90
25280;DHT22;13225;47.804;12.116;2023-10-08T00:05:46;16.40;99.90
25280;DHT22;13225;47.804;12.116;2023-10-08T00:08:12;16.50;99.90
25280;DHT22;13225;47.804;12.116;2023-10-08T00:10:40;16.40;99.90
25280;DHT22;13225;47.804;12.116;2023-10-08T00:13:10;16.30;99.90
25280;DHT22;13225;47.804;12.116;2023-10-08T00:15:39;16.30;99.90
25280;DHT22;13225;47.804;12.116;2023-10-08T00:18:23;16.30;99.90
25280;DHT22;13225;47.804;12.116;2023-10-08T00:20:50;16.30;99.90
25280;DHT22;13225;47.804;12.116;2023-10-08T00:23:42;16.40;99.90
25280;DHT22;13225;47.804;12.116;2023-10-08T00:26:09;16.40;99.90
25280;DHT22;13225;47.804;12.116;2023-10-08T00:28:34;16.40;99.90
25280;DHT22;13225;47.804;12.116;2023-10-08T00:31:03;16.40;99.90
25280;DHT22;13225;47.804;12.116;2023-10-08T00:33:37;16.30;99.90
25280;DHT22;13225;47.804;12.116;2023-10-08T00:36:02;16.30;99.90
25280;DHT22;13225;47.804;12.116;2023-10-08T00:38:43;16.30;99.90
25280;DHT22;13225;47.804;12.116;2023-10-08T00:41:13;16.40;99.90
25280;DHT22;13225;47.804;12.116;2023-10-08T00:43:40;16.40;99.90
25280;DHT22;13225;47.804;12.116;2023-10-08T00:46:07;16.40;99.90
25280;DHT22;13225;47.804;12.116;2023-10-08T00:48:53;16.40;99.90
25280;DHT22;13225;47.804;12.116;2023-10-08T00:51:26;16.50;99.90
25280;DHT22;13225;47.804;12.116;2023-10-08T00:54:00;16.50;99.90
25280;DHT22;13225;47.804;12.116;2023-10-08T00:56:33;16.50;99.90
25280;DHT22;13225;47.804;12.116;2023-10-08T00:59:17;16.50;99.90
25280;DHT22;13225;47.804;12.116;2023-10-08T01:01:47;16.40;99.90
25280;DHT22;13225;47.804;12.116;2023-10-08T01:04:25;16.50;99.90
25280;DHT22;13225;47.804;12.116;2023-10-08T01:06:59;16.50;99.90
25280;DHT22;13225;47.804;12.116;2023-10-08T01:09:30;16.60;99.90
25280;DHT22;13225;47.804;12.116;2023-10-08T01:12:18;16.80;99.90
25280;DHT22;13225;47.804;12.116;2023-10-08T01:14:47;16.90;99.90
25280;DHT22;13225;47.804;12.116;2023-10-08T01:17:15;16.90;99.90
25280;DHT22;13225;47.804;12.116;2023-10-08T01:19:45;17.00;99.90
25280;DHT22;13225;47.804;12.116;2023-10-08T01:22:16;17.00;99.90
25280;DHT22;13225;47.804;12.116;2023-10-08T01:24:44;17.00;99.90
25280;DHT22;13225;47.804;12.116;2023-10-08T01:27:13;16.90;99.90
25280;DHT22;13225;47.804;12.116;2023-10-08T01:29:44;16.90;99.90
25280;DHT22;13225;47.804;12.116;2023-10-08T01:32:10;16.90;99.90
25280;DHT22;13225;47.804;12.116;2023-10-08T01:34:37;16.80;99.90
25280;DHT22;13225;47.804;12.116;2023-10-08T01:37:03;16.70;99.90
25280;DHT22;13225;47.804;12.116;2023-10-08T01:39:36;16.70;99.90
25280;DHT22;13225;47.804;12.116;2023-10-08T01:42:01;16.70;99.90
25280;DHT22;13225;47.804;12.116;2023-10-08T01:44:27;16.70;99.90
25280;DHT22;13225;47.804;12.116;2023-10-08T01:46:54;16.60;99.90
25280;DHT22;13225;47.804;12.116;2023-10-08T01:49:23;16.70;99.90
25280;DHT22;13225;47.804;12.116;2023-10-08T01:51:54;16.70;99.90
25280;DHT22;13225;47.804;12.116;2023-10-08T01:54:20;16.70;99.90
25280;DHT22;13225;47.804;12.116;2023-10-08T01:56:46;16.70;99.90
25280;DHT22;13225;47.804;12.116;2023-10-08T01:59:14;16.70;99.90
25280;DHT22;13225;47.804;12.116;2023-10-08T02:01:41;16.60;99.90
25280;DHT22;13225;47.804;12.116;2023-10-08T02:04:08;16.50;99.90
25280;DHT22;13225;47.804;12.116;2023-10-08T02:06:35;16.50;99.90
25280;DHT22;13225;47.804;12.116;2023-10-08T02:09:01;16.50;99.90
25280;DHT22;13225;47.804;12.116;2023-10-08T02:11:42;16.50;99.90
25280;DHT22;13225;47.804;12.116;2023-10-08T02:14:08;16.50;99.90
25280;DHT22;13225;47.804;12.116;2023-10-08T02:16:34;16.60;99.90
25280;DHT22;13225;47.804;12.116;2023-10-08T02:19:00;16.60;99.90
25280;DHT22;13225;47.804;12.116;2023-10-08T02:21:25;16.70;99.90
25280;DHT22;13225;47.804;12.116;2023-10-08T02:23:52;16.70;99.90
25280;DHT22;13225;47.804;12.116;2023-10-08T02:26:18;16.70;99.90
25280;DHT22;13225;47.804;12.116;2023-10-08T02:28:44;16.70;99.90
25280;DHT22;13225;47.804;12.116;2023-10-08T02:31:10;16.70;99.90
25280;DHT22;13225;47.804;12.116;2023-10-08T02:33:36;16.70;99.90
25280;DHT22;13225;47.804;12.116;2023-10-08T02:36:02;16.80;99.90
25280;DHT22;13225;47.804;12.116;2023-10-08T02:38:29;16.90;99.90
25280;DHT22;13225;47.804;12.116;2023-10-08T02:40:55;16.90;99.90
25280;DHT22;13225;47.804;12.116;2023-10-08T02:43:22;17.00;99.90
25280;DHT22;13225;47.804;12.116;2023-10-08T02:45:48;16.90;99.90
25280;DHT22;13225;47.804;12.116;2023-10-08T02:48:15;16.80;99.90
25280;DHT22;13225;47.804;12.116;2023-10-08T02:50:42;16.90;99.90
25280;DHT22;13225;47.804;12.116;2023-10-08T02:53:08;16.80;99.90
25280;DHT22;13225;47.804;12.116;2023-10-08T02:55:39;16.80;99.90
25280;DHT22;13225;47.804;12.116;2023-10-08T02:58:15;16.90;99.90
25280;DHT22;13225;47.804;12.116;2023-10-08T03:00:45;16.90;99.90
25280;DHT22;13225;47.804;12.116;2023-10-08T03:03:15;16.80;99.90
25280;DHT22;13225;47.804;12.116;2023-10-08T03:05:47;16.70;99.90
25280;DHT22;13225;47.804;12.116;2023-10-08T03:08:16;16.70;99.90
25280;DHT22;13225;47.804;12.116;2023-10-08T03:10:47;16.80;99.90
25280;DHT22;13225;47.804;12.116;2023-10-08T03:13:17;16.80;99.90
25280;DHT22;13225;47.804;12.116;2023-10-08T03:15:43;16.90;99.90
25280;DHT22;13225;47.804;12.116;2023-10-08T03:18:27;16.90;99.90
25280;DHT22;13225;47.804;12.116;2023-10-08T03:21:03;16.90;99.90
25280;DHT22;13225;47.804;12.116;2023-10-08T03:23:30;16.90;99.90
25280;DHT22;13225;47.804;12.116;2023-10-08T03:26:01;17.00;99.90
25280;DHT22;13225;47.804;12.116;2023-10-08T03:28:34;17.00;99.90
25280;DHT22;13225;47.804;12.116;2023-10-08T03:31:01;17.00;99.90
25280;DHT22;13225;47.804;12.116;2023-10-08T03:33:35;16.90;99.90
25280;DHT22;13225;47.804;12.116;2023-10-08T03:36:03;17.00;99.90
25280;DHT22;13225;47.804;12.116;2023-10-08T03:38:49;16.90;99.90
25280;DHT22;13225;47.804;12.116;2023-10-08T03:41:26;16.90;99.90
25280;DHT22;13225;47.804;12.116;2023-10-08T03:43:56;16.90;99.90
25280;DHT22;13225;47.804;12.116;2023-10-08T03:46:30;16.90;99.90
25280;DHT22;13225;47.804;12.116;2023-10-08T03:48:56;17.00;99.90
25280;DHT22;13225;47.804;12.116;2023-10-08T03:51:23;17.00;99.90
25280;DHT22;13225;47.804;12.116;2023-10-08T03:53:53;17.00;99.90
25280;DHT22;13225;47.804;12.116;2023-10-08T03:56:41;17.00;99.90
25280;DHT22;13225;47.804;12.116;2023-10-08T03:59:15;16.90;99.90
25280;DHT22;13225;47.804;12.116;2023-10-08T04:01:57;16.90;99.90
25280;DHT22;13225;47.804;12.116;2023-10-08T04:04:26;16.90;99.90
25280;DHT22;13225;47.804;12.116;2023-10-08T04:07:11;16.80;99.90
25280;DHT22;13225;47.804;12.116;2023-10-08T04:09:56;16.90;99.90
25280;DHT22;13225;47.804;12.116;2023-10-08T04:12:34;16.90;99.90
25280;DHT22;13225;47.804;12.116;2023-10-08T04:15:03;16.90;99.90
25280;DHT22;13225;47.804;12.116;2023-10-08T04:17:35;16.90;99.90
25280;DHT22;13225;47.804;12.116;2023-10-08T04:20:12;16.90;99.90
25280;DHT22;13225;47.804;12.116;2023-10-08T04:23:02;16.90;99.90
25280;DHT22;13225;47.804;12.116;2023-10-08T04:25:30;16.90;99.90
25280;DHT22;13225;47.804;12.116;2023-10-08T04:27:57;16.80;99.90
25280;DHT22;13225;47.804;12.116;2023-10-08T04:30:26;16.80;99.90
25280;DHT22;13225;47.804;12.116;2023-10-08T04:32:59;16.80;99.90
25280;DHT22;13225;47.804;12.116;2023-10-08T04:35:34;16.90;99.90
25280;DHT22;13225;47.804;12.116;2023-10-08T04:38:03;16.90;99.90
25280;DHT22;13225;47.804;12.116;2023-10-08T04:40:29;16.90;99.90
25280;DHT22;13225;47.804;12.116;2023-10-08T04:42:58;16.90;99.90
25280;DHT22;13225;47.804;12.116;2023-10-08T04:45:27;16.80;99.90
25280;DHT22;13225;47.804;12.116;2023-10-08T04:47:59;16.90;99.90
25280;DHT22;13225;47.804;12.116;2023-10-08T04:50:24;16.80;99.90
25280;DHT22;13225;47.804;12.116;2023-10-08T04:52:55;16.90;99.90
25280;DHT22;13225;47.804;12.116;2023-10-08T04:55:25;16.80;99.90
25280;DHT22;13225;47.804;12.116;2023-10-08T04:57:55;16.90;99.90
25280;DHT22;13225;47.804;12.116;2023-10-08T05:00:21;16.90;99.90
25280;DHT22;13225;47.804;12.116;2023-10-08T05:03:07;16.90;99.90
25280;DHT22;13225;47.804;12.116;2023-10-08T05:05:40;16.90;99.90
25280;DHT22;13225;47.804;12.116;2023-10-08T05:08:32;16.90;99.90
25280;DHT22;13225;47.804;12.116;2023-10-08T05:11:10;16.90;99.90
25280;DHT22;13225;47.804;12.116;2023-10-08T05:13:50;16.90;99.90
25280;DHT22;13225;47.804;12.116;2023-10-08T05:16:36;16.90;99.90
25280;DHT22;13225;47.804;12.116;2023-10-08T05:19:09;16.80;99.90
25280;DHT22;13225;47.804;12.116;2023-10-08T05:21:55;16.80;99.90
25280;DHT22;13225;47.804;12.116;2023-10-08T05:24:39;16.80;99.90
25280;DHT22;13225;47.804;12.116;2023-10-08T05:27:07;16.80;99.90
25280;DHT22;13225;47.804;12.116;2023-10-08T05:30:03;16.80;99.90
25280;DHT22;13225;47.804;12.116;2023-10-08T05:32:45;16.80;99.90
25280;DHT22;13225;47.804;12.116;2023-10-08T05:35:42;16.80;99.90
25280;DHT22;13225;47.804;12.116;2023-10-08T05:38:12;16.80;99.90
25280;DHT22;13225;47.804;12.116;2023-10-08T05:40:45;16.90;99.90
25280;DHT22;13225;47.804;12.116;2023-10-08T05:43:37;16.80;99.90
25280;DHT22;13225;47.804;12.116;2023-10-08T05:46:06;16.80;99.90
25280;DHT22;13225;47.804;12.116;2023-10-08T05:48:44;16.80;99.90
25280;DHT22;13225;47.804;12.116;2023-10-08T05:51:36;16.80;99.90
25280;DHT22;13225;47.804;12.116;2023-10-08T05:54:18;16.80;99.90
25280;DHT22;13225;47.804;12.116;2023-10-08T05:56:53;16.90;99.90
25280;DHT22;13225;47.804;12.116;2023-10-08T05:59:47;16.80;99.90
25280;DHT22;13225;47.804;12.116;2023-10-08T06:02:30;16.80;99.90
25280;DHT22;13225;47.804;12.116;2023-10-08T06:05:06;16.70;99.90
25280;DHT22;13225;47.804;12.116;2023-10-08T06:07:38;16.60;99.90
25280;DHT22;13225;47.804;12.116;2023-10-08T06:10:17;16.50;99.90
25280;DHT22;13225;47.804;12.116;2023-10-08T06:13:12;16.40;99.90
25280;DHT22;13225;47.804;12.116;2023-10-08T06:16:10;16.30;99.90
25280;DHT22;13225;47.804;12.116;2023-10-08T06:18:39;16.30;99.90
25280;DHT22;13225;47.804;12.116;2023-10-08T06:21:05;16.20;99.90
25280;DHT22;13225;47.804;12.116;2023-10-08T06:23:38;16.10;99.90
25280;DHT22;13225;47.804;12.116;2023-10-08T06:26:04;16.00;99.90
25280;DHT22;13225;47.804;12.116;2023-10-08T06:28:37;16.00;99.90
25280;DHT22;13225;47.804;12.116;2023-10-08T06:31:04;16.00;99.90
25280;DHT22;13225;47.804;12.116;2023-10-08T06:33:38;16.00;99.90
25280;DHT22;13225;47.804;12.116;2023-10-08T06:36:04;16.00;99.90
25280;DHT22;13225;47.804;12.116;2023-10-08T06:38:36;15.90;99.90
25280;DHT22;13225;47.804;12.116;2023-10-08T06:41:05;15.90;99.90
25280;DHT22;13225;47.804;12.116;2023-10-08T06:43:35;15.90;99.90
25280;DHT22;13225;47.804;12.116;2023-10-08T06:46:04;15.80;99.90
25280;DHT22;13225;47.804;12.116;2023-10-08T06:48:33;15.80;99.90
25280;DHT22;13225;47.804;12.116;2023-10-08T06:51:00;15.90;99.90
25280;DHT22;13225;47.804;12.116;2023-10-08T06:53:33;16.00;99.90
25280;DHT22;13225;47.804;12.116;2023-10-08T06:55:59;16.00;99.90
25280;DHT22;13225;47.804;12.116;2023-10-08T06:58:30;16.00;99.90
25280;DHT22;13225;47.804;12.116;2023-10-08T07:00:58;16.00;99.90
25280;DHT22;13225;47.804;12.116;2023-10-08T07:03:28;16.10;99.90
25280;DHT22;13225;47.804;12.116;2023-10-08T07:05:55;16.20;99.90
25280;DHT22;13225;47.804;12.116;2023-10-08T07:08:24;16.30;99.90
25280;DHT22;13225;47.804;12.116;2023-10-08T07:10:52;16.50;99.90
25280;DHT22;13225;47.804;12.116;2023-10-08T07:13:22;16.60;99.90
25280;DHT22;13225;47.804;12.116;2023-10-08T07:15:51;16.80;99.90
25280;DHT22;13225;47.804;12.116;2023-10-08T07:18:18;17.00;99.90
25280;DHT22;13225;47.804;12.116;2023-10-08T07:20:51;17.10;99.90
25280;DHT22;13225;47.804;12.116;2023-10-08T07:23:20;17.20;99.90
25280;DHT22;13225;47.804;12.116;2023-10-08T07:25:58;17.40;99.90
25280;DHT22;13225;47.804;12.116;2023-10-08T07:28:41;17.60;99.90
25280;DHT22;13225;47.804;12.116;2023-10-08T07:31:18;17.80;99.90
25280;DHT22;13225;47.804;12.116;2023-10-08T07:33:53;17.90;99.90
25280;DHT22;13225;47.804;12.116;2023-10-08T07:36:23;17.90;99.90
25280;DHT22;13225;47.804;12.116;2023-10-08T07:38:48;17.90;99.90
25280;DHT22;13225;47.804;12.116;2023-10-08T07:41:14;17.80;99.90
25280;DHT22;13225;47.804;12.116;2023-10-08T07:43:43;17.80;99.90
25280;DHT22;13225;47.804;12.116;2023-10-08T07:46:10;17.80;99.90
25280;DHT22;13225;47.804;12.116;2023-10-08T07:48:36;17.80;99.90
25280;DHT22;13225;47.804;12.116;2023-10-08T07:51:07;17.90;99.90
25280;DHT22;13225;47.804;12.116;2023-10-08T07:53:33;17.90;99.90
25280;DHT22;13225;47.804;12.116;2023-10-08T07:56:06;17.70;99.90
25280;DHT22;13225;47.804;12.116;2023-10-08T07:58:32;17.60;99.90
25280;DHT22;13225;47.804;12.116;2023-10-08T08:01:06;17.60;99.90
25280;DHT22;13225;47.804;12.116;2023-10-08T08:03:38;17.60;99.90
25280;DHT22;13225;47.804;12.116;2023-10-08T08:06:08;17.70;99.90
25280;DHT22;13225;47.804;12.116;2023-10-08T08:08:35;17.70;99.90
25280;DHT22;13225;47.804;12.116;2023-10-08T08:11:07;17.90;99.90
25280;DHT22;13225;47.804;12.116;2023-10-08T08:13:41;17.90;99.90
25280;DHT22;13225;47.804;12.116;2023-10-08T08:16:11;18.00;99.90
25280;DHT22;13225;47.804;12.116;2023-10-08T08:18:44;18.10;99.90
25280;DHT22;13225;47.804;12.116;2023-10-08T08:21:11;18.00;99.90
25280;DHT22;13225;47.804;12.116;2023-10-08T08:23:41;18.10;99.90
25280;DHT22;13225;47.804;12.116;2023-10-08T08:26:13;18.30;99.90
25280;DHT22;13225;47.804;12.116;2023-10-08T08:28:55;18.40;99.90
25280;DHT22;13225;47.804;12.116;2023-10-08T08:31:23;18.40;99.90
25280;DHT22;13225;47.804;12.116;2023-10-08T08:33:50;18.50;99.90
25280;DHT22;13225;47.804;12.116;2023-10-08T08:36:21;18.60;99.90
25280;DHT22;13225;47.804;12.116;2023-10-08T08:38:47;18.70;99.90
25280;DHT22;13225;47.804;12.116;2023-10-08T08:41:13;18.60;99.90
25280;DHT22;13225;47.804;12.116;2023-10-08T08:43:52;18.50;99.90
25280;DHT22;13225;47.804;12.116;2023-10-08T08:46:34;18.60;99.90
25280;DHT22;13225;47.804;12.116;2023-10-08T08:49:02;18.70;99.90
25280;DHT22;13225;47.804;12.116;2023-10-08T08:51:30;18.70;99.90
25280;DHT22;13225;47.804;12.116;2023-10-08T08:53:56;18.80;99.90
25280;DHT22;13225;47.804;12.116;2023-10-08T08:56:21;18.80;99.90
25280;DHT22;13225;47.804;12.116;2023-10-08T08:58:49;18.80;99.90
25280;DHT22;13225;47.804;12.116;2023-10-08T09:01:16;18.80;99.90
25280;DHT22;13225;47.804;12.116;2023-10-08T09:03:43;18.80;99.90
25280;DHT22;13225;47.804;12.116;2023-10-08T09:06:09;18.70;99.90
25280;DHT22;13225;47.804;12.116;2023-10-08T09:08:35;18.70;99.90
25280;DHT22;13225;47.804;12.116;2023-10-08T09:11:01;18.90;99.90
25280;DHT22;13225;47.804;12.116;2023-10-08T09:13:30;18.90;99.90
25280;DHT22;13225;47.804;12.116;2023-10-08T09:16:07;18.90;99.90
25280;DHT22;13225;47.804;12.116;2023-10-08T09:18:33;18.90;99.90
25280;DHT22;13225;47.804;12.116;2023-10-08T09:21:08;19.00;99.90
25280;DHT22;13225;47.804;12.116;2023-10-08T09:23:39;19.10;99.90
25280;DHT22;13225;47.804;12.116;2023-10-08T09:26:09;19.10;99.90
25280;DHT22;13225;47.804;12.116;2023-10-08T09:28:34;19.10;99.90
25280;DHT22;13225;47.804;12.116;2023-10-08T09:31:03;19.00;99.90
25280;DHT22;13225;47.804;12.116;2023-10-08T09:33:30;18.80;99.90
25280;DHT22;13225;47.804;12.116;2023-10-08T09:35:56;18.90;99.90
25280;DHT22;13225;47.804;12.116;2023-10-08T09:38:28;18.90;99.90
25280;DHT22;13225;47.804;12.116;2023-10-08T09:40:55;19.00;99.90
25280;DHT22;13225;47.804;12.116;2023-10-08T09:43:22;19.10;99.90
25280;DHT22;13225;47.804;12.116;2023-10-08T09:45:55;19.10;99.90
25280;DHT22;13225;47.804;12.116;2023-10-08T09:48:25;19.10;99.90
25280;DHT22;13225;47.804;12.116;2023-10-08T09:50:53;19.10;99.90
25280;DHT22;13225;47.804;12.116;2023-10-08T09:54:10;18.90;99.90
25280;DHT22;13225;47.804;12.116;2023-10-08T09:56:14;18.90;99.90
25280;DHT22;13225;47.804;12.116;2023-10-08T09:58:41;18.70;99.90
25280;DHT22;13225;47.804;12.116;2023-10-08T10:01:08;18.70;99.90
25280;DHT22;13225;47.804;12.116;2023-10-08T10:03:35;18.70;99.90
25280;DHT22;13225;47.804;12.116;2023-10-08T10:06:15;18.60;99.90
25280;DHT22;13225;47.804;12.116;2023-10-08T10:08:43;18.70;99.90
25280;DHT22;13225;47.804;12.116;2023-10-08T10:11:13;18.80;99.90
25280;DHT22;13225;47.804;12.116;2023-10-08T10:13:50;19.00;99.90
25280;DHT22;13225;47.804;12.116;2023-10-08T10:19:59;19.10;99.90
25280;DHT22;13225;47.804;12.116;2023-10-08T10:22:33;19.20;99.90
25280;DHT22;13225;47.804;12.116;2023-10-08T10:25:16;19.30;99.90
25280;DHT22;13225;47.804;12.116;2023-10-08T10:28:28;19.40;99.90
25280;DHT22;13225;47.804;12.116;2023-10-08T10:30:58;19.60;99.90
25280;DHT22;13225;47.804;12.116;2023-10-08T10:33:33;19.80;99.90
25280;DHT22;13225;47.804;12.116;2023-10-08T10:36:12;19.90;99.90
25280;DHT22;13225;47.804;12.116;2023-10-08T10:38:42;19.80;99.90
25280;DHT22;13225;47.804;12.116;2023-10-08T10:41:34;19.70;99.90
25280;DHT22;13225;47.804;12.116;2023-10-08T10:44:09;19.70;99.90
25280;DHT22;13225;47.804;12.116;2023-10-08T10:46:46;19.70;99.90
25280;DHT22;13225;47.804;12.116;2023-10-08T10:49:57;19.80;99.90
25280;DHT22;13225;47.804;12.116;2023-10-08T10:53:01;19.60;99.90
25280;DHT22;13225;47.804;12.116;2023-10-08T10:55:40;19.60;99.90
25280;DHT22;13225;47.804;12.116;2023-10-08T10:58:24;19.60;99.90
25280;DHT22;13225;47.804;12.116;2023-10-08T11:01:10;19.60;99.90
25280;DHT22;13225;47.804;12.116;2023-10-08T11:03:52;19.60;99.90
25280;DHT22;13225;47.804;12.116;2023-10-08T11:06:37;19.50;99.90
25280;DHT22;13225;47.804;12.116;2023-10-08T11:09:03;19.30;99.90
25280;DHT22;13225;47.804;12.116;2023-10-08T11:12:00;19.30;99.90
25280;DHT22;13225;47.804;12.116;2023-10-08T11:14:28;19.30;99.90
25280;DHT22;13225;47.804;12.116;2023-10-08T11:16:58;19.40;99.90
25280;DHT22;13225;47.804;12.116;2023-10-08T11:19:41;19.60;99.90
25280;DHT22;13225;47.804;12.116;2023-10-08T11:23:02;19.60;99.90
25280;DHT22;13225;47.804;12.116;2023-10-08T11:26:12;19.70;99.90
25280;DHT22;13225;47.804;12.116;2023-10-08T11:28:41;19.60;99.90
25280;DHT22;13225;47.804;12.116;2023-10-08T11:31:35;19.50;99.90
25280;DHT22;13225;47.804;12.116;2023-10-08T11:37:59;19.20;99.90
25280;DHT22;13225;47.804;12.116;2023-10-08T11:40:47;19.10;99.90
25280;DHT22;13225;47.804;12.116;2023-10-08T11:43:25;19.10;99.90
25280;DHT22;13225;47.804;12.116;2023-10-08T11:45:55;19.00;99.90
25280;DHT22;13225;47.804;12.116;2023-10-08T11:48:56;18.90;99.90
25280;DHT22;13225;47.804;12.116;2023-10-08T11:54:35;18.90;99.90
25280;DHT22;13225;47.804;12.116;2023-10-08T11:57:01;18.90;99.90
25280;DHT22;13225;47.804;12.116;2023-10-08T11:59:38;18.80;99.90
25280;DHT22;13225;47.804;12.116;2023-10-08T12:02:07;18.70;99.90
25280;DHT22;13225;47.804;12.116;2023-10-08T12:05:03;18.70;99.90
25280;DHT22;13225;47.804;12.116;2023-10-08T12:07:34;18.60;99.90
25280;DHT22;13225;47.804;12.116;2023-10-08T12:10:05;18.50;99.90
25280;DHT22;13225;47.804;12.116;2023-10-08T12:12:52;18.50;99.90
25280;DHT22;13225;47.804;12.116;2023-10-08T12:15:26;18.50;99.90
25280;DHT22;13225;47.804;12.116;2023-10-08T12:18:21;18.50;99.90
25280;DHT22;13225;47.804;12.116;2023-10-08T12:21:10;18.40;99.90
25280;DHT22;13225;47.804;12.116;2023-10-08T12:23:45;18.50;99.90
25280;DHT22;13225;47.804;12.116;2023-10-08T12:26:17;18.60;99.90
25280;DHT22;13225;47.804;12.116;2023-10-08T12:28:59;18.60;99.90
25280;DHT22;13225;47.804;12.116;2023-10-08T12:31:29;18.70;99.90
25280;DHT22;13225;47.804;12.116;2023-10-08T12:33:58;18.80;99.90
25280;DHT22;13225;47.804;12.116;2023-10-08T12:36:27;18.80;99.90
25280;DHT22;13225;47.804;12.116;2023-10-08T12:39:10;18.80;99.90
25280;DHT22;13225;47.804;12.116;2023-10-08T12:41:49;18.70;99.90
25280;DHT22;13225;47.804;12.116;2023-10-08T12:44:24;18.80;99.90
25280;DHT22;13225;47.804;12.116;2023-10-08T12:46:56;18.80;99.90
25280;DHT22;13225;47.804;12.116;2023-10-08T12:49:27;18.80;99.90
25280;DHT22;13225;47.804;12.116;2023-10-08T12:52:02;18.80;99.90
25280;DHT22;13225;47.804;12.116;2023-10-08T12:54:30;18.60;99.90
25280;DHT22;13225;47.804;12.116;2023-10-08T12:56:58;18.50;99.90
25280;DHT22;13225;47.804;12.116;2023-10-08T12:59:30;18.60;99.90
25280;DHT22;13225;47.804;12.116;2023-10-08T13:01:57;18.70;99.90
25280;DHT22;13225;47.804;12.116;2023-10-08T13:04:26;18.60;99.90
25280;DHT22;13225;47.804;12.116;2023-10-08T13:07:03;18.60;99.90
25280;DHT22;13225;47.804;12.116;2023-10-08T13:09:32;18.60;99.90
25280;DHT22;13225;47.804;12.116;2023-10-08T13:14:58;18.60;99.90
25280;DHT22;13225;47.804;12.116;2023-10-08T13:17:30;18.60;99.90
25280;DHT22;13225;47.804;12.116;2023-10-08T13:19:56;18.50;99.90
25280;DHT22;13225;47.804;12.116;2023-10-08T13:22:25;18.30;99.90
25280;DHT22;13225;47.804;12.116;2023-10-08T13:24:53;18.30;99.90
25280;DHT22;13225;47.804;12.116;2023-10-08T13:27:22;18.20;99.90
25280;DHT22;13225;47.804;12.116;2023-10-08T13:29:50;18.20;99.90
25280;DHT22;13225;47.804;12.116;2023-10-08T13:32:32;18.20;99.90
25280;DHT22;13225;47.804;12.116;2023-10-08T13:35:05;18.10;99.90
25280;DHT22;13225;47.804;12.116;2023-10-08T13:37:37;18.10;99.90
25280;DHT22;13225;47.804;12.116;2023-10-08T13:40:04;18.00;99.90
25280;DHT22;13225;47.804;12.116;2023-10-08T13:42:47;18.00;99.90
25280;DHT22;13225;47.804;12.116;2023-10-08T13:45:21;18.00;99.90
25280;DHT22;13225;47.804;12.116;2023-10-08T13:47:52;18.10;99.90
25280;DHT22;13225;47.804;12.116;2023-10-08T13:50:18;18.10;99.90
25280;DHT22;13225;47.804;12.116;2023-10-08T13:52:47;18.10;99.90
25280;DHT22;13225;47.804;12.116;2023-10-08T13:55:15;18.20;99.90
25280;DHT22;13225;47.804;12.116;2023-10-08T13:57:45;18.30;99.90
25280;DHT22;13225;47.804;12.116;2023-10-08T14:00:14;18.30;99.90
25280;DHT22;13225;47.804;12.116;2023-10-08T14:03:08;18.30;99.90
25280;DHT22;13225;47.804;12.116;2023-10-08T14:06:00;18.20;99.90
25280;DHT22;13225;47.804;12.116;2023-10-08T14:08:34;18.30;99.90
25280;DHT22;13225;47.804;12.116;2023-10-08T14:11:25;18.40;99.90
25280;DHT22;13225;47.804;12.116;2023-10-08T14:13:59;18.50;99.90
25280;DHT22;13225;47.804;12.116;2023-10-08T14:16:41;18.60;99.90
25280;DHT22;13225;47.804;12.116;2023-10-08T14:19:19;18.60;99.90
25280;DHT22;13225;47.804;12.116;2023-10-08T14:21:48;18.60;99.90
25280;DHT22;13225;47.804;12.116;2023-10-08T14:24:22;18.60;99.90
25280;DHT22;13225;47.804;12.116;2023-10-08T14:26:53;18.60;99.90
25280;DHT22;13225;47.804;12.116;2023-10-08T14:29:31;18.60;99.90
25280;DHT22;13225;47.804;12.116;2023-10-08T14:31:59;18.50;99.90
25280;DHT22;13225;47.804;12.116;2023-10-08T14:34:43;18.40;99.90
25280;DHT22;13225;47.804;12.116;2023-10-08T14:37:11;18.40;99.90
25280;DHT22;13225;47.804;12.116;2023-10-08T14:39:56;18.30;99.90
25280;DHT22;13225;47.804;12.116;2023-10-08T14:42:43;18.20;99.90
25280;DHT22;13225;47.804;12.116;2023-10-08T14:45:30;18.10;99.90
25280;DHT22;13225;47.804;12.116;2023-10-08T14:48:01;18.20;99.90
25280;DHT22;13225;47.804;12.116;2023-10-08T14:50:37;18.20;99.90
25280;DHT22;13225;47.804;12.116;2023-10-08T14:53:18;18.10;99.90
25280;DHT22;13225;47.804;12.116;2023-10-08T14:55:53;18.00;99.90
25280;DHT22;13225;47.804;12.116;2023-10-08T14:58:26;17.90;99.90
25280;DHT22;13225;47.804;12.116;2023-10-08T15:00:52;17.70;99.90
25280;DHT22;13225;47.804;12.116;2023-10-08T15:03:23;17.70;99.90
25280;DHT22;13225;47.804;12.116;2023-10-08T15:06:08;17.60;99.90
25280;DHT22;13225;47.804;12.116;2023-10-08T15:08:39;17.60;99.90
25280;DHT22;13225;47.804;12.116;2023-10-08T15:11:05;17.50;99.90
25280;DHT22;13225;47.804;12.116;2023-10-08T15:13:35;17.40;99.90
25280;DHT22;13225;47.804;12.116;2023-10-08T15:16:05;17.30;99.90
25280;DHT22;13225;47.804;12.116;2023-10-08T15:18:31;17.30;99.90
25280;DHT22;13225;47.804;12.116;2023-10-08T15:21:11;17.30;99.90
25280;DHT22;13225;47.804;12.116;2023-10-08T15:23:40;17.30;99.90
25280;DHT22;13225;47.804;12.116;2023-10-08T15:26:09;17.30;99.90
25280;DHT22;13225;47.804;12.116;2023-10-08T15:28:40;17.30;99.90
25280;DHT22;13225;47.804;12.116;2023-10-08T15:31:09;17.20;99.90
25280;DHT22;13225;47.804;12.116;2023-10-08T15:33:34;17.20;99.90
25280;DHT22;13225;47.804;12.116;2023-10-08T15:36:03;17.20;99.90
25280;DHT22;13225;47.804;12.116;2023-10-08T15:38:32;17.10;99.90
25280;DHT22;13225;47.804;12.116;2023-10-08T15:40:58;17.10;99.90
25280;DHT22;13225;47.804;12.116;2023-10-08T15:43:25;17.10;99.90
25280;DHT22;13225;47.804;12.116;2023-10-08T15:45:51;17.10;99.90
25280;DHT22;13225;47.804;12.116;2023-10-08T15:48:17;17.10;99.90
25280;DHT22;13225;47.804;12.116;2023-10-08T15:50:44;17.10;99.90
25280;DHT22;13225;47.804;12.116;2023-10-08T15:53:12;17.10;99.90
25280;DHT22;13225;47.804;12.116;2023-10-08T15:55:38;17.00;99.90
25280;DHT22;13225;47.804;12.116;2023-10-08T15:58:04;17.00;99.90
25280;DHT22;13225;47.804;12.116;2023-10-08T16:00:36;17.00;99.90
25280;DHT22;13225;47.804;12.116;2023-10-08T16:03:02;17.00;99.90
25280;DHT22;13225;47.804;12.116;2023-10-08T16:05:27;16.90;99.90